createdAt,value
2023-04-11T00:02:04.887Z,96818.09
2023-04-11T00:06:59.792Z,96816.03
2023-04-11T00:11:53.224Z,96821.63
2023-04-11T00:16:49.913Z,96819.38
2023-04-11T00:21:44.275Z,96828.97
2023-04-11T00:26:38.977Z,96848.31
2023-04-11T00:31:32.343Z,96848.31
2023-04-11T00:36:27.140Z,96840.91
2023-04-11T00:41:20.590Z,96820.97
2023-04-11T00:46:17.118Z,96800.88
2023-04-11T00:51:10.691Z,96788.13
2023-04-11T00:56:04.355Z,96763.88
2023-04-11T01:00:57.776Z,96735.56
2023-04-11T01:05:57.338Z,96741.78
2023-04-11T01:10:51.225Z,96738.81
2023-04-11T01:15:44.720Z,96737.28
2023-04-11T01:20:39.666Z,96738.94
2023-04-11T01:25:34.569Z,96749.50
2023-04-11T01:30:28.090Z,96732.47
2023-04-11T01:35:21.898Z,96737.03
2023-04-11T01:40:21.486Z,96748.78
2023-04-11T01:45:17.075Z,96741.72
2023-04-11T01:50:12.133Z,96756.56
2023-04-11T01:55:09.578Z,96745.91
2023-04-11T02:00:04.908Z,96752.59
2023-04-11T02:05:02.588Z,96740.31
2023-04-11T02:09:56.083Z,96706.50
2023-04-11T02:14:50.004Z,96703.88
2023-04-11T02:19:45.540Z,96702.13
2023-04-11T02:24:40.454Z,96705.59
2023-04-11T02:29:33.875Z,96697.78
2023-04-11T02:34:27.667Z,96719.78
2023-04-11T02:39:23.660Z,96719.97
2023-04-11T02:44:20.217Z,96709.97
2023-04-11T02:49:13.591Z,96709.97
2023-04-11T02:54:07.683Z,96730.09
2023-04-11T02:59:01.077Z,96733.69
2023-04-11T03:03:55.853Z,96721.47
2023-04-11T03:08:50.118Z,96730.06
2023-04-11T03:13:44.015Z,96726.56
2023-04-11T03:18:37.380Z,96737.03
2023-04-11T03:23:32.460Z,96755.72
2023-04-11T03:28:25.753Z,96782.00
2023-04-11T03:33:19.135Z,96789.28
2023-04-11T03:38:12.561Z,96764.09
2023-04-11T03:43:08.451Z,96758.69
2023-04-11T03:48:01.872Z,96765.38
2023-04-11T03:52:55.782Z,96784.41
2023-04-11T03:57:49.267Z,96785.75
2023-04-11T04:02:44.151Z,96775.53
2023-04-11T04:07:37.686Z,96772.44
2023-04-11T04:12:31.039Z,96784.19
2023-04-11T04:17:25.090Z,96781.09
2023-04-11T04:22:19.881Z,96758.72
2023-04-11T04:27:13.837Z,96732.56
2023-04-11T04:32:11.385Z,96732.75
2023-04-11T04:37:04.769Z,96753.31
2023-04-11T04:42:01.626Z,96755.78
2023-04-11T04:46:55.631Z,96754.06
2023-04-11T04:51:49.204Z,96761.78
2023-04-11T04:56:44.064Z,96761.66
2023-04-11T05:01:40.401Z,96781.09
2023-04-11T05:06:34.052Z,96782.41
2023-04-11T05:11:27.568Z,96773.03
2023-04-11T05:16:23.102Z,96784.00
2023-04-11T05:21:19.590Z,96776.13
2023-04-11T05:26:13.400Z,96757.41
2023-04-11T05:31:09.989Z,96752.50
2023-04-11T05:36:03.469Z,96765.03
2023-04-11T05:40:58.222Z,96761.94
2023-04-11T05:45:52.270Z,96761.59
2023-04-11T05:50:45.664Z,96764.31
2023-04-11T05:55:39.008Z,96756.69
2023-04-11T06:00:33.850Z,96765.63
2023-04-11T06:05:31.333Z,96759.94
2023-04-11T06:10:24.894Z,96772.16
2023-04-11T06:15:19.063Z,96750.75
2023-04-11T06:20:16.638Z,96750.97
2023-04-11T06:25:11.299Z,96758.72
2023-04-11T06:30:05.194Z,96778.38
2023-04-11T06:35:04.672Z,96773.72
2023-04-11T06:40:01.234Z,96780.28
2023-04-11T06:45:05.039Z,96777.19
2023-04-11T06:50:43.192Z,96778.63
2023-04-11T07:01:13.102Z,96832.56
2023-04-11T07:06:27.316Z,96865.09
2023-04-11T07:11:34.416Z,96881.88
2023-04-11T07:16:58.908Z,96888.38
2023-04-11T07:21:58.634Z,96886.59
2023-04-11T07:34:16.430Z,96914.34
2023-04-11T07:39:24.574Z,96924.59
2023-04-11T07:51:21.064Z,96934.94
2023-04-11T07:56:16.342Z,96937.31
2023-04-11T08:01:23.956Z,96937.31
2023-04-11T08:06:21.428Z,96916.69
2023-04-11T08:11:15.268Z,96923.47
2023-04-11T08:16:19.251Z,96918.44
2023-04-11T08:21:15.891Z,96929.03
2023-04-11T08:26:12.979Z,96940.50
2023-04-11T08:31:07.345Z,96958.06
2023-04-11T08:36:00.752Z,96979.94
2023-04-11T08:40:54.222Z,96976.00
2023-04-11T08:45:49.313Z,96985.09
2023-04-11T08:50:43.336Z,96989.47
2023-04-11T08:55:37.603Z,96994.34
2023-04-11T09:00:32.669Z,96988.84
2023-04-11T09:05:33.204Z,96975.63
2023-04-11T09:10:27.978Z,96979.69
2023-04-11T09:56:18.407Z,96980.13
2023-04-11T10:01:14.225Z,96979.88
2023-04-11T10:06:14.219Z,96972.97
2023-04-11T10:11:12.008Z,96986.19
2023-04-11T10:37:08.567Z,97051.16
2023-04-11T10:42:27.999Z,97047.78
2023-04-11T10:47:21.491Z,97034.78
2023-04-11T10:52:23.066Z,97025.88
2023-04-11T10:57:16.855Z,97028.09
2023-04-11T11:02:11.421Z,97042.66
2023-04-11T11:07:18.476Z,97054.59
2023-04-11T11:12:16.096Z,97047.91
2023-04-11T11:17:15.212Z,97041.13
2023-04-11T11:22:16.518Z,97061.72
2023-04-11T11:27:22.921Z,97072.56
2023-04-11T11:32:25.320Z,97086.63
2023-04-11T11:37:20.132Z,97080.56
2023-04-11T11:42:16.328Z,97077.97
2023-04-11T11:47:15.421Z,97077.47
2023-04-11T11:52:09.244Z,97099.16
2023-04-11T11:57:04.831Z,97099.38
2023-04-11T12:01:58.410Z,97101.88
2023-04-11T12:06:53.771Z,97094.56
2023-04-11T12:11:47.191Z,97101.47
2023-04-11T12:16:40.983Z,97095.47
2023-04-11T12:21:34.314Z,97085.16
2023-04-11T12:26:29.688Z,97085.59
2023-04-11T12:31:25.126Z,97089.13
2023-04-11T12:36:18.616Z,97078.41
2023-04-11T12:41:31.039Z,97079.03
2023-04-11T12:46:27.463Z,97077.84
2023-04-11T12:51:21.019Z,97087.31
2023-04-11T12:56:14.379Z,97082.31
2023-04-11T13:01:08.838Z,97084.19
2023-04-11T13:06:03.586Z,97088.66
2023-04-11T13:10:56.878Z,97084.63
2023-04-11T13:15:50.253Z,97084.25
2023-04-11T13:20:43.711Z,97073.28
2023-04-11T13:25:38.384Z,97071.09
2023-04-11T13:30:31.842Z,97071.00
2023-04-11T13:35:26.157Z,97070.28
2023-04-11T13:40:20.708Z,97073.81
2023-04-11T13:45:15.418Z,97066.72
2023-04-11T13:50:10.382Z,97062.19
2023-04-11T13:55:03.857Z,97043.31
2023-04-11T13:59:57.206Z,97038.66
2023-04-11T14:04:52.085Z,97039.66
2023-04-11T14:09:45.542Z,97055.34
2023-04-11T14:14:38.827Z,97046.41
2023-04-11T14:19:32.177Z,97029.91
2023-04-11T14:24:26.892Z,97037.34
2023-04-11T14:29:21.069Z,97036.97
2023-04-11T14:34:18.148Z,97031.00
2023-04-11T14:39:11.534Z,97041.09
2023-04-11T14:44:06.505Z,97032.41
2023-04-11T14:48:59.805Z,97028.28
2023-04-11T14:53:55.329Z,97038.13
2023-04-11T14:58:48.840Z,97013.16
2023-04-11T15:03:44.102Z,97019.66
2023-04-11T15:08:37.647Z,97014.97
2023-04-11T15:13:31.754Z,97014.72
2023-04-11T15:18:28.034Z,96990.25
2023-04-11T15:23:23.517Z,96983.91
2023-04-11T15:28:17.034Z,96974.75
2023-04-11T15:33:10.308Z,96973.56
2023-04-11T15:38:03.916Z,96976.84
2023-04-11T15:42:58.568Z,96981.22
2023-04-11T15:47:51.917Z,96981.09
2023-04-11T15:52:47.667Z,96966.56
2023-04-11T15:57:40.979Z,96949.78
2023-04-11T16:02:36.057Z,96962.75
2023-04-11T16:07:29.710Z,96962.31
2023-04-11T16:12:23.243Z,96945.47
2023-04-11T16:17:18.371Z,96954.97
2023-04-11T16:22:13.132Z,96948.00
2023-04-11T16:27:06.436Z,96940.44
2023-04-11T16:31:59.765Z,96949.66
2023-04-11T16:36:53.137Z,96948.63
2023-04-11T16:41:47.890Z,96941.03
2023-04-11T16:46:41.782Z,96933.78
2023-04-11T16:51:36.516Z,96931.81
2023-04-11T16:56:29.889Z,96930.22
2023-04-11T17:01:24.657Z,96928.28
2023-04-11T17:06:18.170Z,96927.81
2023-04-11T17:11:12.147Z,96938.00
2023-04-11T17:16:06.145Z,96936.47
2023-04-11T17:21:01.321Z,96925.72
2023-04-11T17:25:56.836Z,96919.84
2023-04-11T17:30:50.350Z,96911.91
2023-04-11T17:35:44.662Z,96908.56
2023-04-11T17:40:41.382Z,96908.81
2023-04-11T17:45:34.725Z,96921.66
2023-04-11T17:50:29.656Z,96926.09
2023-04-11T17:55:23.025Z,96932.16
2023-04-11T18:00:23.274Z,96928.81
2023-04-11T18:05:23.947Z,96923.78
2023-04-11T18:10:19.665Z,96917.91
2023-04-11T18:15:13.459Z,96924.13
2023-04-11T18:20:10.772Z,96920.22
2023-04-11T18:25:04.302Z,96926.16
2023-04-11T18:29:57.688Z,96925.91
2023-04-11T18:34:51.207Z,96920.63
2023-04-11T18:39:46.154Z,96920.84
2023-04-11T18:44:39.542Z,96917.25
2023-04-11T18:49:32.837Z,96916.19
2023-04-11T18:54:26.412Z,96922.28
2023-04-11T18:59:24.923Z,96918.09
2023-04-11T19:04:19.508Z,96928.81
2023-04-11T19:09:13.952Z,96919.63
2023-04-11T19:14:07.404Z,96930.31
2023-04-11T19:19:02.699Z,96930.53
2023-04-11T19:24:00.104Z,96931.41
2023-04-11T19:28:53.512Z,96930.19
2023-04-11T19:33:46.914Z,96924.50
2023-04-11T19:38:42.040Z,96903.09
2023-04-11T19:43:35.497Z,96905.72
2023-04-11T19:48:29.012Z,96902.16
2023-04-11T19:53:22.350Z,96898.59
2023-04-11T19:58:17.116Z,96882.34
2023-04-11T20:03:14.997Z,96884.91
2023-04-11T20:08:08.622Z,96882.56
2023-04-11T20:13:02.470Z,96877.06
2023-04-11T20:17:57.417Z,96874.44
2023-04-11T20:22:50.860Z,96865.44
2023-04-11T20:27:49.445Z,96865.94
2023-04-11T20:32:43.559Z,96857.28
2023-04-11T20:37:38.301Z,96860.16
2023-04-11T20:42:31.853Z,96840.78
2023-04-11T20:47:25.619Z,96846.50
2023-04-11T20:52:19.029Z,96837.72
2023-04-11T20:57:13.757Z,96834.91
2023-04-11T21:02:07.922Z,96820.91
2023-04-11T21:07:01.431Z,96826.59
2023-04-11T21:11:56.047Z,96819.97
2023-04-11T21:16:50.766Z,96812.69
2023-04-11T21:21:44.098Z,96809.94
2023-04-11T21:26:37.935Z,96801.47
2023-04-11T21:31:31.340Z,96805.22
2023-04-11T21:36:26.292Z,96802.91
2023-04-11T21:41:22.557Z,96792.13
2023-04-11T21:46:15.995Z,96809.25
2023-04-11T21:51:09.722Z,96798.41
2023-04-11T21:56:04.381Z,96782.34
2023-04-11T22:00:57.725Z,96779.56
2023-04-11T22:05:52.435Z,96763.91
2023-04-11T22:10:47.776Z,96765.34
2023-04-11T22:15:43.209Z,96754.03
2023-04-11T22:20:43.531Z,96747.13
2023-04-11T22:25:38.791Z,96738.22
2023-04-11T22:30:32.288Z,96734.88
2023-04-11T22:35:26.984Z,96737.41
2023-04-11T22:40:22.389Z,96732.78
2023-04-11T22:45:17.918Z,96723.25
2023-04-11T22:50:11.735Z,96726.09
2023-04-11T22:55:10.262Z,96717.53
2023-04-11T23:00:07.167Z,96716.78
2023-04-11T23:05:02.681Z,96698.94
2023-04-11T23:09:56.292Z,96699.50
2023-04-11T23:14:53.210Z,96692.63
2023-04-11T23:19:47.202Z,96683.03
2023-04-11T23:24:43.454Z,96673.69
2023-04-11T23:29:37.139Z,96667.06
2023-04-11T23:34:31.952Z,96665.72
2023-04-11T23:39:25.373Z,96658.84
2023-04-11T23:44:18.854Z,96641.13
2023-04-11T23:49:12.176Z,96630.41
2023-04-11T23:54:07.856Z,96623.50
2023-04-11T23:59:01.472Z,96603.59
